Time;durP1;ratioP1;P1;durP2;ratioP2;P2;SDS_P1;SDS_P2;PMS_P1;PMS_P2;Temp;Humidity;BMP_temperature;BMP_pressure;BME280_temperature;BME280_humidity;BME280_pressure;Samples;Min_cycle;Max_cycle;Signal;HPM_P1;HPM_P2
2022/05/18 04:02:10;;;;;;;10.65;8.52;;;;;;;19.36;69.36;101005.91;2419836;23;2510398;-64
2022/05/18 04:03:11;;;;;;;11.20;8.20;;;;;;;20.23;69.10;101150.19;2476434;23;20606;-65
2022/05/18 04:04:12;;;;;;;13.17;8.33;;;;;;;20.34;68.77;101141.91;2491155;23;20165;-65
2022/05/18 04:05:12;;;;;;;11.47;9.67;;;;;;;20.38;68.71;101145.31;2507313;23;20394;-64
2022/05/18 04:06:14;;;;;;;10.93;9.67;;;;;;;20.44;68.32;101148.22;2507983;23;20216;-65
2022/05/18 04:07:15;;;;;;;11.07;10.00;;;;;;;20.34;68.39;101141.91;2508219;23;20153;-65
2022/05/18 04:08:16;;;;;;;12.53;10.07;;;;;;;20.19;68.50;101154.44;2495161;23;20402;-67
2022/05/18 04:09:17;;;;;;;11.67;10.50;;;;;;;20.12;68.69;101158.41;2482391;23;20165;-67
2022/05/18 04:10:18;;;;;;;10.70;6.97;;;;;;;20.20;68.27;101162.41;2493414;23;20379;-70
2022/05/18 04:11:19;;;;;;;13.87;9.90;;;;;;;20.42;68.37;101162.00;2506743;23;20156;-71
2022/05/18 04:12:20;;;;;;;10.73;8.83;;;;;;;20.47;67.98;101158.50;2508316;23;20395;-68
2022/05/18 04:13:24;;;;;;;11.93;10.10;;;;;;;20.54;67.87;101155.28;2507997;23;20173;-69
2022/05/18 04:14:25;;;;;;;10.20;8.90;;;;;;;20.66;67.44;101154.97;2507992;23;20162;-69
2022/05/18 04:15:27;;;;;;;12.43;9.53;;;;;;;20.83;67.24;101161.63;2506995;23;20377;-69
2022/05/18 04:16:27;;;;;;;8.30;6.90;;;;;;;21.12;66.54;101161.56;2508050;23;20152;-69
2022/05/18 04:17:28;;;;;;;9.73;7.27;;;;;;;21.22;65.88;101131.97;2508484;23;20406;-69
2022/05/18 04:18:29;;;;;;;9.80;6.83;;;;;;;21.47;65.23;101164.31;2508853;23;20147;-66
2022/05/18 04:19:29;;;;;;;11.40;6.73;;;;;;;21.42;64.76;101153.72;2508539;23;20152;-65
2022/05/18 04:20:30;;;;;;;8.53;7.33;;;;;;;21.56;64.13;101145.22;2508700;23;20554;-65
2022/05/18 04:21:31;;;;;;;8.87;6.00;;;;;;;21.32;63.78;101098.75;2508700;23;20152;-67
2022/05/18 04:22:32;;;;;;;10.13;8.00;;;;;;;21.92;63.57;101164.34;2509323;23;20235;-68
2022/05/18 04:23:33;;;;;;;8.13;6.13;;;;;;;21.97;62.77;101151.56;2508409;23;20187;-67
2022/05/18 04:24:34;;;;;;;7.13;5.90;;;;;;;22.25;62.01;101155.41;2509053;23;20376;-68
2022/05/18 04:25:36;;;;;;;6.70;6.03;;;;;;;21.81;61.40;101071.13;2508887;23;20384;-68
2022/05/18 04:26:36;;;;;;;10.87;8.00;;;;;;;22.55;61.23;101159.53;2508591;23;20243;-68
2022/05/18 04:27:37;;;;;;;9.00;7.00;;;;;;;22.47;60.88;101166.94;2508932;23;20373;-68
2022/05/18 04:28:37;;;;;;;12.60;6.43;;;;;;;22.35;60.83;101163.22;2508773;23;20207;-67
2022/05/18 04:29:38;;;;;;;7.40;5.90;;;;;;;21.93;60.23;101080.47;2508301;23;20162;-67
2022/05/18 04:30:39;;;;;;;6.90;6.20;;;;;;;22.14;60.38;101122.22;2509046;23;20183;-67
2022/05/18 04:31:40;;;;;;;8.27;7.27;;;;;;;22.29;60.45;101139.81;2496268;23;20527;-69
2022/05/18 04:32:41;;;;;;;12.20;8.23;;;;;;;22.27;60.77;101181.13;2496299;23;20173;-68
2022/05/18 04:33:41;;;;;;;10.20;8.17;;;;;;;21.62;60.89;101084.00;2495256;23;20437;-67
2022/05/18 04:34:42;;;;;;;11.20;8.93;;;;;;;21.85;61.68;101167.59;2483706;23;20604;-68
2022/05/18 04:35:43;;;;;;;10.27;8.93;;;;;;;21.84;61.84;101168.09;2495221;23;20823;-67
2022/05/18 04:36:43;;;;;;;8.93;7.53;;;;;;;21.66;62.22;101168.38;2507895;23;20156;-68
2022/05/18 04:37:44;;;;;;;8.97;8.07;;;;;;;21.64;62.49;101165.31;2508120;23;20528;-68
2022/05/18 04:38:44;;;;;;;15.73;8.70;;;;;;;21.52;62.86;101155.13;2507973;23;20152;-68
2022/05/18 04:39:45;;;;;;;10.63;8.33;;;;;;;21.32;63.14;101152.31;2507927;23;20214;-68
2022/05/18 04:40:46;;;;;;;8.90;8.07;;;;;;;20.77;63.64;101100.84;2508088;23;20165;-68
2022/05/18 04:41:46;;;;;;;9.67;8.23;;;;;;;21.13;63.92;101145.44;2495142;23;20168;-68
2022/05/18 04:42:47;;;;;;;10.70;8.83;;;;;;;20.50;64.31;101064.59;2494886;23;20467;-68
2022/05/18 04:43:48;;;;;;;9.83;8.47;;;;;;;21.02;64.65;101157.31;2494396;23;20564;-68
2022/05/18 04:44:52;;;;;;;11.43;7.60;;;;;;;20.93;64.75;101167.97;2507695;23;20152;-68
2022/05/18 04:45:52;;;;;;;12.93;8.10;;;;;;;21.05;65.09;101159.16;2507346;23;20159;-68
2022/05/18 04:46:55;;;;;;;10.33;7.97;;;;;;;21.09;64.90;101165.34;2507637;23;20395;-68
2022/05/18 04:47:56;;;;;;;10.73;7.73;;;;;;;21.21;64.92;101178.34;2507917;23;20666;-69
2022/05/18 04:48:56;;;;;;;9.43;7.40;;;;;;;20.75;64.65;101106.97;2507622;23;20847;-68
2022/05/18 04:49:58;;;;;;;10.30;8.30;;;;;;;21.25;64.87;101192.22;2508107;23;20179;-69
2022/05/18 04:50:59;;;;;;;7.77;7.00;;;;;;;21.33;64.70;101202.59;2507936;23;20243;-68
2022/05/18 04:52:01;;;;;;;10.07;7.40;;;;;;;20.30;64.25;101065.34;2507807;23;20384;-68
2022/05/18 04:53:01;;;;;;;10.20;8.13;;;;;;;21.31;64.28;101198.72;2507505;23;20396;-67
2022/05/18 04:54:02;;;;;;;8.30;7.50;;;;;;;21.49;64.24;101198.44;2507097;23;20800;-67
2022/05/18 04:55:03;;;;;;;8.80;6.27;;;;;;;21.41;63.41;101188.84;2507696;23;20156;-68
2022/05/18 04:56:04;;;;;;;7.87;5.60;;;;;;;21.43;62.82;101198.34;2494942;23;20176;-67
2022/05/18 04:57:05;;;;;;;8.40;5.57;;;;;;;21.22;62.61;101173.47;2494679;23;20417;-67
2022/05/18 04:58:06;;;;;;;7.70;6.10;;;;;;;21.42;62.52;101177.06;2495124;23;20392;-67
2022/05/18 04:59:07;;;;;;;7.50;5.67;;;;;;;21.72;62.56;101203.88;2509072;23;20152;-67
2022/05/18 05:00:11;;;;;;;6.27;5.33;;;;;;;21.84;61.72;101199.13;2508677;23;20231;-67
2022/05/18 05:01:12;;;;;;;9.70;6.43;;;;;;;22.02;61.71;101193.97;2508536;23;20158;-67
2022/05/18 05:02:12;;;;;;;6.13;5.00;;;;;;;22.03;60.89;101198.34;2513731;23;20956;-68
2022/05/18 05:03:13;;;;;;;8.13;5.17;;;;;;;22.08;60.23;101194.78;2519844;23;20190;-67
2022/05/18 05:04:14;;;;;;;7.30;4.80;;;;;;;21.71;60.11;101153.59;2506801;23;20184;-67
2022/05/18 05:05:14;;;;;;;6.73;4.60;;;;;;;21.95;59.76;101200.03;2507768;23;20183;-67
2022/05/18 05:06:15;;;;;;;5.93;4.60;;;;;;;21.70;59.32;101206.41;2520459;23;20161;-67
2022/05/18 05:07:15;;;;;;;6.87;4.50;;;;;;;21.64;59.77;101216.81;2519551;23;20162;-68
2022/05/18 05:08:16;;;;;;;5.27;4.50;;;;;;;21.63;60.18;101208.84;2519571;23;20155;-68
2022/05/18 05:09:16;;;;;;;9.27;4.67;;;;;;;21.58;60.14;101182.13;2519323;23;20426;-68
2022/05/18 05:10:18;;;;;;;7.47;4.57;;;;;;;21.58;60.31;101167.25;2520414;23;20159;-69
2022/05/18 05:11:19;;;;;;;6.20;4.87;;;;;;;22.02;59.91;101221.41;2520951;23;20210;-69
2022/05/18 05:12:20;;;;;;;6.03;4.37;;;;;;;22.31;58.97;101218.38;2520470;23;20727;-69
2022/05/18 05:13:21;;;;;;;8.90;4.50;;;;;;;21.89;58.75;101162.50;2520593;23;20383;-69
2022/05/18 05:14:22;;;;;;;6.17;3.80;;;;;;;22.31;58.20;101218.38;2520197;23;20403;-68
2022/05/18 05:15:23;;;;;;;8.27;3.80;;;;;;;21.92;57.78;101217.97;2520692;23;20155;-68
2022/05/18 05:16:23;;;;;;;7.93;3.90;;;;;;;21.41;57.64;101175.53;2520810;23;20379;-68
2022/05/18 05:17:25;;;;;;;7.50;4.00;;;;;;;21.87;57.64;101229.19;2508065;23;20156;-68
2022/05/18 05:18:26;;;;;;;4.93;3.87;;;;;;;21.36;58.02;101156.50;2508481;23;20182;-67
2022/05/18 05:19:27;;;;;;;5.53;3.53;;;;;;;21.77;57.38;101231.38;2520857;23;20386;-66
2022/05/18 05:20:27;;;;;;;4.63;3.83;;;;;;;21.48;57.90;101214.56;2521020;23;20165;-68
2022/05/18 05:21:28;;;;;;;5.77;5.00;;;;;;;21.81;58.93;101240.38;2520826;23;20378;-69
2022/05/18 05:22:28;;;;;;;6.47;4.40;;;;;;;21.99;58.82;101240.09;2520715;23;20185;-68
2022/05/18 05:23:29;;;;;;;7.90;4.57;;;;;;;22.02;58.87;101246.81;2519587;23;20218;-68
2022/05/18 05:24:30;;;;;;;5.03;4.13;;;;;;;21.48;59.06;101151.75;2519251;23;20182;-68
2022/05/18 05:25:30;;;;;;;5.37;3.50;;;;;;;22.17;58.81;101231.34;2518868;23;20147;-68
2022/05/18 05:26:30;;;;;;;7.47;4.43;;;;;;;21.74;58.75;101153.38;2519098;23;20649;-66
2022/05/18 05:27:31;;;;;;;4.87;3.80;;;;;;;22.38;58.36;101232.03;2505865;23;20250;-68
2022/05/18 05:28:32;;;;;;;6.33;3.53;;;;;;;22.20;57.54;101210.56;2506815;23;20159;-67
2022/05/18 05:29:32;;;;;;;6.70;3.67;;;;;;;22.41;57.56;101239.53;2519367;23;20162;-67
2022/05/18 05:30:33;;;;;;;7.13;3.70;;;;;;;22.27;57.59;101229.88;2518409;23;20598;-66
2022/05/18 05:31:33;;;;;;;6.80;3.67;;;;;;;21.95;57.31;101238.78;2519567;23;20179;-67
2022/05/18 05:32:33;;;;;;;6.43;3.10;;;;;;;21.87;57.12;101246.13;2519495;23;20183;-67
2022/05/18 05:33:35;;;;;;;4.83;3.33;;;;;;;22.03;57.58;101254.00;2519110;23;20158;-67
2022/05/18 05:34:36;;;;;;;5.67;3.70;;;;;;;21.97;57.71;101250.34;2518924;23;20556;-66
2022/05/18 05:35:41;;;;;;;6.77;2.77;;;;;;;21.47;57.42;101200.97;2519446;23;20414;-66
2022/05/18 05:36:41;;;;;;;5.87;3.20;;;;;;;21.71;57.37;101246.69;2519680;23;20155;-67
2022/05/18 05:37:42;;;;;;;5.87;3.13;;;;;;;21.67;57.97;101246.88;2506889;23;20410;-68
2022/05/18 05:38:42;;;;;;;7.23;3.00;;;;;;;21.56;58.00;101252.38;2507269;23;20163;-67
2022/05/18 05:39:43;;;;;;;8.20;3.43;;;;;;;20.89;58.00;101167.34;2520686;23;20162;-69
2022/05/18 05:40:43;;;;;;;4.07;2.47;;;;;;;21.17;57.74;101242.59;2521141;23;20203;-66
2022/05/18 05:41:44;;;;;;;6.60;2.70;;;;;;;20.78;58.07;101249.63;2520675;23;20189;-66
2022/05/18 05:42:44;;;;;;;6.50;2.53;;;;;;;20.54;58.32;101267.91;2520465;23;20218;-65
2022/05/18 05:43:45;;;;;;;5.70;2.60;;;;;;;20.23;58.94;101262.75;2520231;23;20178;-66
2022/05/18 05:44:45;;;;;;;6.07;2.40;;;;;;;20.23;59.01;101285.28;2520817;23;20221;-65
2022/05/18 05:46:07;;;;;;;5.10;2.50;;;;;;;19.48;59.73;101184.75;2520419;23;20170;-65
2022/05/18 05:47:09;;;;;;;6.57;2.70;;;;;;;20.09;60.02;101274.75;2520168;23;20622;-66
2022/05/18 05:48:10;;;;;;;5.40;2.70;;;;;;;20.12;60.42;101265.34;2508424;23;20794;-65
2022/05/18 05:49:11;;;;;;;7.00;2.97;;;;;;;19.79;60.94;101214.03;2508493;23;20814;-67
2022/05/18 05:50:13;;;;;;;9.07;2.57;;;;;;;20.23;60.63;101281.66;2520819;23;20391;-65
2022/05/18 05:51:15;;;;;;;3.17;2.10;;;;;;;19.85;61.07;101220.53;2508380;23;20211;-64
2022/05/18 05:52:16;;;;;;;4.90;2.20;;;;;;;20.16;60.52;101287.69;2508972;23;20426;-64
2022/05/18 05:53:17;;;;;;;5.03;2.40;;;;;;;20.21;61.21;101293.41;2521208;23;20453;-65
2022/05/18 05:54:17;;;;;;;3.83;2.63;;;;;;;20.13;60.85;101297.06;2508796;23;20165;-66
2022/05/18 05:55:18;;;;;;;11.23;2.07;;;;;;;20.15;61.23;101297.34;2508818;23;20173;-64
2022/05/18 05:56:20;;;;;;;4.10;2.23;;;;;;;19.70;61.00;101239.41;2521428;23;20334;-65
2022/05/18 05:57:22;;;;;;;4.50;2.30;;;;;;;20.07;60.97;101290.53;2508579;23;20166;-65
2022/05/18 05:58:23;;;;;;;3.90;2.00;;;;;;;19.48;60.92;101226.91;2509160;23;20467;-66
2022/05/18 05:59:23;;;;;;;3.70;2.57;;;;;;;19.58;61.27;101234.81;2521368;23;20383;-66
2022/05/18 06:00:24;;;;;;;4.13;2.30;;;;;;;20.10;61.19;101312.09;2521601;23;20415;-67
2022/05/18 06:01:25;;;;;;;8.87;2.20;;;;;;;20.14;61.22;101315.50;2521566;23;20154;-67
2022/05/18 06:02:26;;;;;;;3.70;2.27;;;;;;;19.61;61.45;101235.91;2521203;23;20439;-66
2022/05/18 06:03:27;;;;;;;6.17;2.20;;;;;;;20.05;61.80;101307.13;2520810;23;20250;-66
2022/05/18 06:04:31;;;;;;;4.03;2.03;;;;;;;19.21;61.37;101193.34;2508767;23;20388;-66
2022/05/18 06:05:32;;;;;;;6.17;2.20;;;;;;;20.04;61.87;101323.22;2509160;23;20478;-66
2022/05/18 06:06:35;;;;;;;5.10;2.40;;;;;;;20.06;61.74;101317.88;2521245;23;20475;-66
2022/05/18 06:07:36;;;;;;;4.50;2.27;;;;;;;20.14;61.64;101323.94;2521542;23;20173;-65
2022/05/18 06:08:37;;;;;;;3.57;2.10;;;;;;;20.15;61.50;101331.91;2521353;23;20379;-67
2022/05/18 06:09:39;;;;;;;7.00;2.23;;;;;;;20.12;61.23;101329.28;2521421;23;20151;-65
2022/05/18 06:10:40;;;;;;;4.53;2.00;;;;;;;19.64;61.04;101257.41;2521407;23;20379;-66
2022/05/18 06:11:40;;;;;;;3.90;2.33;;;;;;;19.84;61.39;101299.75;2521414;23;20386;-66
2022/05/18 06:12:41;;;;;;;3.60;2.03;;;;;;;20.00;61.58;101336.69;2521428;23;20152;-66
2022/05/18 06:13:42;;;;;;;3.90;2.30;;;;;;;20.04;61.45;101340.09;2508640;23;20186;-66
2022/05/18 06:14:44;;;;;;;5.97;2.50;;;;;;;20.10;61.75;101329.78;2508877;23;20916;-66
2022/05/18 06:15:45;;;;;;;6.33;2.40;;;;;;;20.02;61.53;101336.22;2521456;23;20158;-65
2022/05/18 06:16:46;;;;;;;3.97;2.20;;;;;;;19.99;61.56;101343.59;2521437;23;20385;-65
2022/05/18 06:17:47;;;;;;;5.10;2.17;;;;;;;20.06;61.94;101334.75;2521448;23;20157;-65
2022/05/18 06:18:47;;;;;;;4.90;2.03;;;;;;;20.10;61.89;101335.41;2521368;23;20377;-65
2022/05/18 06:19:48;;;;;;;8.80;2.53;;;;;;;20.22;61.64;101350.47;2521339;23;20160;-66
2022/05/18 06:20:49;;;;;;;4.17;2.17;;;;;;;20.25;61.45;101353.09;2521518;23;20180;-67
2022/05/18 06:21:50;;;;;;;3.03;1.90;;;;;;;19.61;61.29;101252.75;2508850;23;20576;-67
2022/05/18 06:22:50;;;;;;;4.00;1.90;;;;;;;20.27;61.08;101349.81;2508779;23;20578;-64
2022/05/18 06:23:51;;;;;;;4.67;2.20;;;;;;;20.12;61.17;101338.50;2521370;23;20633;-64
2022/05/18 06:24:52;;;;;;;5.70;1.90;;;;;;;20.19;61.16;101355.03;2521509;23;20164;-64
2022/05/18 06:25:58;;;;;;;8.67;2.13;;;;;;;20.22;61.23;101348.44;2521498;23;20156;-66
2022/05/18 06:26:59;;;;;;;7.03;2.23;;;;;;;20.30;61.34;101362.91;2521532;23;20372;-65
2022/05/18 06:28:00;;;;;;;4.57;2.10;;;;;;;19.90;61.43;101293.00;2521277;23;20864;-65
2022/05/18 06:29:00;;;;;;;2.70;1.97;;;;;;;20.40;61.20;101367.19;2521259;23;20625;-65
2022/05/18 06:30:01;;;;;;;5.47;1.90;;;;;;;20.45;61.12;101367.31;2520756;23;20178;-67
2022/05/18 06:31:01;;;;;;;2.80;1.70;;;;;;;19.99;61.10;101295.75;2520906;23;20611;-66
2022/05/18 06:32:02;;;;;;;3.13;1.80;;;;;;;20.47;60.46;101378.13;2508463;23;20166;-67
2022/05/18 06:33:03;;;;;;;4.13;1.90;;;;;;;20.29;60.40;101375.44;2508498;23;20164;-66
2022/05/18 06:34:04;;;;;;;6.93;1.97;;;;;;;20.28;60.64;101357.78;2521372;23;20165;-65
2022/05/18 06:35:06;;;;;;;5.73;2.00;;;;;;;20.41;60.62;101380.81;2520283;23;20377;-65
2022/05/18 06:36:06;;;;;;;3.97;2.07;;;;;;;20.54;60.64;101377.72;2521176;23;20701;-64
2022/05/18 06:37:07;;;;;;;6.20;1.80;;;;;;;20.38;60.44;101335.94;2521096;23;20393;-65
2022/05/18 06:38:15;;;;;;;3.97;2.10;;;;;;;20.82;60.67;101384.69;2521162;23;20156;-65
2022/05/18 06:39:18;;;;;;;12.13;3.13;;;;;;;20.88;60.75;101388.38;2521552;23;20156;-65
2022/05/18 06:40:19;;;;;;;7.13;1.87;;;;;;;20.95;59.91;101390.81;2521409;23;20378;-64
2022/05/18 06:41:22;;;;;;;6.23;2.10;;;;;;;20.50;59.60;101335.69;2521508;23;20378;-65
2022/05/18 06:42:23;;;;;;;4.23;1.80;;;;;;;20.87;59.74;101386.81;2521376;23;20387;-64
2022/05/18 06:43:24;;;;;;;3.87;1.57;;;;;;;20.80;59.60;101390.00;2521031;23;20439;-65
2022/05/18 06:44:25;;;;;;;5.43;1.90;;;;;;;20.77;59.81;101399.44;2521362;23;20181;-66
2022/05/18 06:45:25;;;;;;;5.97;1.87;;;;;;;20.58;59.83;101392.41;2508652;23;20391;-64
2022/05/18 06:46:27;;;;;;;3.30;1.87;;;;;;;20.58;59.65;101398.78;2508737;23;20377;-65
2022/05/18 06:47:28;;;;;;;5.30;1.70;;;;;;;19.98;59.41;101327.97;2521462;23;20210;-66
2022/05/18 06:48:29;;;;;;;3.33;1.80;;;;;;;20.45;59.60;101409.56;2521348;23;20416;-65
2022/05/18 06:49:29;;;;;;;3.87;1.70;;;;;;;20.43;59.54;101408.47;2520813;23;20233;-65
2022/05/18 06:50:30;;;;;;;3.93;1.90;;;;;;;19.94;59.88;101324.56;2521357;23;20925;-64
2022/05/18 06:51:36;;;;;;;5.80;1.73;;;;;;;20.51;59.91;101418.88;2508147;23;20167;-65
2022/05/18 06:52:37;;;;;;;5.30;1.93;;;;;;;20.09;59.58;101344.31;2509668;23;20148;-65
2022/05/18 06:53:39;;;;;;;3.50;1.60;;;;;;;20.30;59.59;101376.97;2520560;23;20792;-64
2022/05/18 06:54:39;;;;;;;3.23;1.60;;;;;;;20.52;59.62;101419.69;2520737;23;20158;-66
2022/05/18 06:55:40;;;;;;;3.73;1.87;;;;;;;20.36;59.72;101404.00;2508283;23;20384;-64
2022/05/18 06:56:43;;;;;;;3.77;1.77;;;;;;;19.75;59.65;101299.84;2508693;23;20159;-66
2022/05/18 06:57:43;;;;;;;6.87;2.23;;;;;;;20.37;59.28;101416.81;2521368;23;20237;-67
2022/05/18 06:58:44;;;;;;;5.20;2.13;;;;;;;20.36;59.51;101423.69;2521294;23;20379;-67
2022/05/18 06:59:44;;;;;;;2.37;1.60;;;;;;;20.00;59.67;101369.69;2521371;23;20162;-66
2022/05/18 07:00:44;;;;;;;4.73;1.90;;;;;;;20.49;59.69;101440.34;2521487;23;20151;-66
2022/05/18 07:01:45;;;;;;;4.77;1.90;;;;;;;20.51;59.93;101423.72;2521100;23;20151;-65
2022/05/18 07:02:46;;;;;;;6.77;2.30;;;;;;;20.53;59.75;101424.81;2521232;23;20159;-65
2022/05/18 07:03:47;;;;;;;7.33;1.93;;;;;;;20.61;59.29;101447.75;2520761;23;20186;-66
2022/05/18 07:04:49;;;;;;;5.83;1.80;;;;;;;20.68;59.59;101447.38;2521119;23;20872;-66
2022/05/18 07:05:50;;;;;;;3.90;2.00;;;;;;;20.64;59.43;101441.16;2520962;23;20222;-67
2022/05/18 07:06:51;;;;;;;6.30;1.90;;;;;;;20.60;59.41;101426.47;2508268;23;20427;-65
2022/05/18 07:07:51;;;;;;;2.63;1.73;;;;;;;20.24;59.32;101392.97;2508405;23;20387;-65
2022/05/18 07:08:54;;;;;;;4.63;1.60;;;;;;;20.64;59.31;101453.22;2508666;23;20517;-65
2022/05/18 07:09:55;;;;;;;6.47;1.90;;;;;;;20.59;59.59;101448.25;2508680;23;20160;-67
2022/05/18 07:10:55;;;;;;;4.17;1.70;;;;;;;20.64;59.66;101456.03;2508196;23;20376;-66
2022/05/18 07:11:56;;;;;;;3.57;1.70;;;;;;;20.29;59.50;101400.75;2520713;23;20155;-65
2022/05/18 07:12:56;;;;;;;6.27;2.00;;;;;;;20.64;59.25;101463.69;2521438;23;20186;-66
2022/05/18 07:13:58;;;;;;;4.33;1.87;;;;;;;20.69;59.27;101460.22;2521304;23;20151;-66
2022/05/18 07:14:59;;;;;;;3.70;1.50;;;;;;;20.70;59.21;101465.38;2521485;23;20151;-66
2022/05/18 07:16:00;;;;;;;7.23;1.90;;;;;;;20.66;59.10;101453.50;2521394;23;20407;-68
2022/05/18 07:17:01;;;;;;;2.10;1.50;;;;;;;20.66;58.96;101463.97;2508668;23;20164;-67
2022/05/18 07:18:01;;;;;;;3.50;1.80;;;;;;;20.35;59.19;101418.53;2508221;23;20590;-65
2022/05/18 07:19:02;;;;;;;5.93;1.70;;;;;;;20.71;59.22;101466.13;2508358;23;20167;-65
2022/05/18 07:20:04;;;;;;;5.77;1.60;;;;;;;20.79;59.18;101467.31;2508831;23;20156;-65
2022/05/18 07:21:06;;;;;;;4.93;1.90;;;;;;;20.74;59.32;101453.91;2521332;23;20155;-66
2022/05/18 07:22:06;;;;;;;4.03;1.50;;;;;;;20.87;58.99;101474.16;2508673;23;20455;-67
2022/05/18 07:23:07;;;;;;;4.70;1.60;;;;;;;20.86;58.79;101464.13;2508691;23;20384;-66
2022/05/18 07:24:09;;;;;;;5.37;1.70;;;;;;;20.91;58.77;101474.75;2521007;23;20162;-66
2022/05/18 07:25:09;;;;;;;6.37;1.70;;;;;;;20.43;58.69;101389.56;2521104;23;20795;-65
2022/05/18 07:26:11;;;;;;;3.90;1.53;;;;;;;21.05;58.46;101477.63;2521411;23;20390;-67
2022/05/18 07:27:12;;;;;;;3.23;1.43;;;;;;;21.06;58.53;101475.56;2521320;23;20151;-66
2022/05/18 07:28:12;;;;;;;3.57;1.60;;;;;;;21.06;58.29;101484.00;2521497;23;20465;-67
2022/05/18 07:29:13;;;;;;;2.83;1.80;;;;;;;20.51;58.07;101415.28;2521443;23;20189;-66
2022/05/18 07:30:15;;;;;;;3.17;1.80;;;;;;;20.75;58.27;101458.28;2521457;23;20175;-65
2022/05/18 07:31:19;;;;;;;6.50;1.97;;;;;;;20.91;58.44;101491.66;2508575;23;20160;-66
2022/05/18 07:32:19;;;;;;;6.47;1.90;;;;;;;20.62;58.71;101463.41;2509249;23;20380;-65
2022/05/18 07:33:21;;;;;;;6.13;2.00;;;;;;;20.60;59.36;101468.72;2521424;23;20457;-66
2022/05/18 07:34:22;;;;;;;5.40;1.77;;;;;;;20.75;59.16;101498.50;2521424;23;20208;-65
2022/05/18 07:35:23;;;;;;;4.43;1.80;;;;;;;20.71;59.22;101500.72;2521354;23;20417;-65
2022/05/18 07:36:24;;;;;;;3.37;1.70;;;;;;;19.94;59.35;101382.84;2521311;23;20163;-65
2022/05/18 07:37:24;;;;;;;6.93;1.80;;;;;;;20.70;59.94;101504.00;2521411;23;20409;-65
2022/05/18 07:38:27;;;;;;;5.43;2.00;;;;;;;20.66;59.79;101495.75;2521371;23;20176;-64
2022/05/18 07:39:28;;;;;;;5.83;2.23;;;;;;;20.31;59.72;101434.84;2521209;23;20158;-65
2022/05/18 07:40:29;;;;;;;4.10;1.60;;;;;;;20.40;59.36;101474.97;2521385;23;20442;-65
2022/05/18 07:41:30;;;;;;;3.37;1.70;;;;;;;20.35;59.30;101472.03;2521243;23;20450;-66
2022/05/18 07:42:30;;;;;;;4.33;2.20;;;;;;;20.54;59.28;101510.06;2521072;23;20235;-67
2022/05/18 07:43:31;;;;;;;5.30;1.70;;;;;;;20.51;59.38;101505.38;2508295;23;20669;-67
2022/05/18 07:44:33;;;;;;;5.57;1.70;;;;;;;20.35;59.34;101489.72;2508760;23;20148;-67
2022/05/18 07:45:35;;;;;;;2.57;1.50;;;;;;;20.52;59.49;101519.00;2521519;23;20549;-67
2022/05/18 07:46:35;;;;;;;4.03;1.60;;;;;;;20.55;59.37;101518.03;2508614;23;20417;-67
2022/05/18 07:47:36;;;;;;;4.53;1.50;;;;;;;20.29;59.54;101471.91;2508634;23;20379;-66
2022/05/18 07:48:38;;;;;;;5.43;1.90;;;;;;;20.13;59.50;101446.22;2521129;23;20163;-66
2022/05/18 07:49:41;;;;;;;2.70;1.60;;;;;;;20.71;59.22;101526.06;2521150;23;20474;-66
2022/05/18 07:50:42;;;;;;;4.03;1.60;;;;;;;20.61;58.98;101521.75;2521526;23;20382;-66
2022/05/18 07:51:43;;;;;;;4.37;2.10;;;;;;;20.66;58.95;101512.66;2521954;23;20414;-66
2022/05/18 07:52:43;;;;;;;10.00;2.37;;;;;;;20.82;59.00;101531.16;2521972;23;20458;-66
2022/05/18 07:53:44;;;;;;;6.67;1.83;;;;;;;20.50;59.16;101472.88;2521927;23;20371;-66
2022/05/18 07:54:47;;;;;;;4.80;1.70;;;;;;;20.85;58.76;101535.81;2521967;23;20158;-66
2022/05/18 07:55:48;;;;;;;2.47;1.47;;;;;;;20.37;58.79;101461.84;2521587;23;20609;-66
2022/05/18 07:56:48;;;;;;;5.47;1.57;;;;;;;20.38;59.07;101468.25;2521071;23;20387;-72
2022/05/18 07:57:49;;;;;;;3.07;1.40;;;;;;;20.82;58.85;101536.81;2521218;23;20375;-73
2022/05/18 07:58:49;;;;;;;3.10;1.70;;;;;;;20.20;58.86;101443.03;2521382;23;20178;-70
2022/05/18 07:59:55;;;;;;;7.83;1.90;;;;;;;20.69;58.94;101520.16;2521184;23;20158;-71
2022/05/18 08:00:55;;;;;;;5.37;1.70;;;;;;;20.42;59.00;101494.97;2521846;23;20143;-68
2022/05/18 08:01:56;;;;;;;5.10;1.83;;;;;;;20.81;59.00;101544.47;2521519;23;20383;-68
2022/05/18 08:02:56;;;;;;;4.73;1.80;;;;;;;20.88;59.13;101548.97;2521922;23;20206;-66
2022/05/18 08:03:57;;;;;;;4.57;1.70;;;;;;;20.74;59.13;101529.97;2521853;23;20230;-65
2022/05/18 08:04:58;;;;;;;3.07;1.50;;;;;;;20.66;59.19;101525.94;2521960;23;20197;-66
2022/05/18 08:05:58;;;;;;;6.73;1.97;;;;;;;20.70;59.13;101540.63;2521791;23;20151;-67
2022/05/18 08:06:59;;;;;;;3.40;1.67;;;;;;;20.74;59.17;101553.28;2521843;23;20151;-66
2022/05/18 08:08:05;;;;;;;5.03;1.60;;;;;;;20.72;59.66;101561.41;2522038;23;20161;-68
2022/05/18 08:09:06;;;;;;;6.23;1.73;;;;;;;20.72;59.40;101558.59;2521689;23;20149;-69
2022/05/18 08:15:23;;;;;;;6.20;2.10;;;;;;;20.93;59.51;101591.34;2521589;23;20352;-67
2022/05/18 08:16:25;;;;;;;6.40;1.80;;;;;;;20.90;59.62;101614.88;2521755;23;20379;-67
2022/05/18 08:17:25;;;;;;;2.77;1.37;;;;;;;20.84;59.70;101639.31;2508620;23;20388;-66
2022/05/18 08:18:26;;;;;;;9.73;1.53;;;;;;;20.78;59.61;101617.88;2497114;23;20891;-66
2022/05/18 08:19:26;;;;;;;2.27;1.40;;;;;;;20.54;59.69;101629.13;2508706;23;20174;-66
2022/05/18 08:20:27;;;;;;;2.90;1.10;;;;;;;20.12;59.94;101642.41;2521630;23;20154;-66
2022/05/18 08:21:28;;;;;;;2.70;1.20;;;;;;;19.86;60.55;101644.03;2521459;23;20154;-67
2022/05/18 08:22:28;;;;;;;2.60;1.43;;;;;;;19.78;61.15;101648.44;2521639;23;20223;-64
2022/05/18 08:23:29;;;;;;;2.67;1.33;;;;;;;20.03;61.31;101650.88;2521267;23;20182;-67
2022/05/18 08:24:30;;;;;;;2.70;1.10;;;;;;;19.76;61.04;101611.53;2521442;23;20652;-66
2022/05/18 08:25:30;;;;;;;1.93;1.20;;;;;;;19.75;61.00;101649.34;2521253;23;20508;-67
2022/05/18 08:26:32;;;;;;;2.83;1.10;;;;;;;19.80;61.04;101662.78;2521676;23;20436;-67
2022/05/18 08:27:33;;;;;;;3.23;1.10;;;;;;;19.31;61.24;101593.94;2508362;23;20172;-66
2022/05/18 08:28:34;;;;;;;2.10;1.00;;;;;;;19.75;60.92;101662.66;2509104;23;20380;-68
2022/05/18 08:29:36;;;;;;;1.10;0.93;;;;;;;19.29;61.24;101599.28;2508985;23;20253;-68
2022/05/18 08:30:36;;;;;;;5.23;1.23;;;;;;;19.58;61.12;101673.44;2509246;23;20383;-68
2022/05/18 08:31:37;;;;;;;2.67;1.30;;;;;;;19.40;61.30;101659.38;2521448;23;20470;-68
2022/05/18 08:32:37;;;;;;;4.10;1.23;;;;;;;19.06;61.33;101600.63;2508671;23;20323;-69
2022/05/18 08:33:38;;;;;;;2.97;1.10;;;;;;;19.53;61.59;101679.69;2508049;23;20152;-70
2022/05/18 08:34:38;;;;;;;3.83;1.40;;;;;;;19.51;61.60;101699.06;2521077;23;20586;-68
2022/05/18 08:35:43;;;;;;;2.20;0.90;;;;;;;19.22;61.88;101684.66;2520456;23;20151;-68
2022/05/18 08:36:44;;;;;;;2.77;0.80;;;;;;;19.05;61.88;101691.00;2521400;23;20165;-68
2022/05/18 08:37:47;;;;;;;3.63;0.97;;;;;;;18.69;62.24;101635.53;2521120;23;20384;-68
2022/05/18 08:38:47;;;;;;;2.03;1.10;;;;;;;18.98;62.05;101694.88;2521273;23;20161;-68
2022/05/18 08:39:47;;;;;;;1.30;0.80;;;;;;;18.64;62.57;101697.09;2521352;23;20389;-69
2022/05/18 08:40:58;;;;;;;3.57;1.03;;;;;;;18.70;62.65;101703.69;2521236;23;20242;-69
2022/05/18 08:42:01;;;;;;;2.50;1.10;;;;;;;18.27;62.95;101656.06;2521315;23;20143;-69
2022/05/18 08:43:04;;;;;;;2.70;1.20;;;;;;;18.65;63.29;101709.91;2521275;23;20394;-69
2022/05/18 08:44:07;;;;;;;2.93;0.97;;;;;;;18.55;63.49;101713.91;2520962;23;20369;-69
2022/05/18 08:45:08;;;;;;;2.40;1.00;;;;;;;18.48;63.56;101728.22;2521181;23;20439;-68
2022/05/18 08:46:28;;;;;;;3.53;1.40;;;;;;;17.98;63.80;101659.94;2521054;23;20382;-68
2022/05/18 08:47:29;;;;;;;2.07;1.17;;;;;;;18.26;63.73;101745.06;2520708;23;20363;-68
2022/05/18 08:49:01;;;;;;;2.13;1.20;;;;;;;18.13;64.27;101746.38;2508470;23;20475;-66
2022/05/18 08:50:05;;;;;;;3.07;1.00;;;;;;;18.06;64.71;101741.03;2478895;23;20166;-66
2022/05/18 08:51:30;;;;;;;1.77;1.00;;;;;;;18.02;64.81;101744.75;2509093;23;20476;-66
2022/05/18 08:52:46;;;;;;;1.70;1.10;;;;;;;18.01;64.56;101755.66;2521672;23;20357;-70